Time;durP1;ratioP1;P1;durP2;ratioP2;P2;SDS_P1;SDS_P2;PMS_P1;PMS_P2;Temp;Humidity;BMP_temperature;BMP_pressure;BME280_temperature;BME280_humidity;BME280_pressure;Samples;Min_cycle;Max_cycle;Signal;HPM_P1;HPM_P2
2022/01/01 00:02:05;;;;;;;7.10;5.53;;;11.30;99.90;;;11.40;68.18;98605.41;5006328;28;20054;-45
2022/01/01 00:04:53;;;;;;;9.60;6.30;;;11.40;99.90;;;11.41;68.28;98609.72;5007583;28;20046;-46
2022/01/01 00:07:21;;;;;;;11.23;6.38;;;11.40;99.90;;;11.41;68.53;98613.22;5008282;28;20243;-44
2022/01/01 00:09:49;;;;;;;9.85;5.25;;;11.40;99.90;;;11.42;68.16;98611.44;5007984;28;20053;-44
2022/01/01 00:12:18;;;;;;;16.08;11.02;;;11.40;99.90;;;11.42;68.11;98617.59;5006481;28;20064;-46
2022/01/01 00:14:47;;;;;;;17.63;11.80;;;11.40;99.90;;;11.45;68.13;98621.78;5005747;28;20248;-44
2022/01/01 00:17:14;;;;;;;9.97;6.80;;;11.40;99.90;;;11.44;68.31;98617.47;5006437;28;20057;-46
2022/01/01 00:19:42;;;;;;;13.00;7.53;;;11.40;99.90;;;11.46;68.09;98625.28;5007624;28;20060;-46
2022/01/01 00:22:10;;;;;;;8.20;5.93;;;11.40;99.90;;;11.43;68.24;98619.25;5006270;28;20060;-47
2022/01/01 00:24:38;;;;;;;10.38;6.75;;;11.40;99.90;;;11.45;68.07;98623.63;5005592;28;20380;-45
2022/01/01 00:27:06;;;;;;;10.95;7.22;;;11.40;99.90;;;11.45;68.15;98626.28;5008177;28;20060;-46
2022/01/01 00:29:34;;;;;;;10.00;6.88;;;11.40;99.90;;;11.45;68.32;98631.63;5007433;28;20049;-45
2022/01/01 00:32:03;;;;;;;9.00;6.32;;;11.40;99.90;;;11.41;68.04;98631.91;5006743;28;20045;-45
2022/01/01 00:34:35;;;;;;;8.40;6.07;;;11.30;99.90;;;11.39;68.17;98631.19;4968874;28;1119465;-45
2022/01/01 00:37:05;;;;;;;10.93;6.73;;;11.30;99.90;;;11.37;67.91;98630.50;5006841;28;20057;-46
2022/01/01 00:39:33;;;;;;;10.07;6.57;;;11.30;99.90;;;11.24;67.47;98621.94;5007631;28;20071;-46
2022/01/01 00:42:01;;;;;;;8.73;5.70;;;11.10;99.90;;;11.18;67.61;98635.84;5007140;28;20046;-44
2022/01/01 00:44:32;;;;;;;7.95;6.53;;;11.00;99.90;;;11.15;67.79;98630.81;5007484;28;20060;-48
2022/01/01 00:47:01;;;;;;;9.30;6.20;;;11.00;99.90;;;11.15;68.12;98636.97;5006730;28;20252;-45
2022/01/01 00:49:29;;;;;;;11.18;6.65;;;11.00;99.90;;;11.13;67.55;98633.63;5007638;28;20038;-44
2022/01/01 00:51:57;;;;;;;9.68;6.13;;;11.00;99.90;;;11.15;67.90;98638.81;5006533;28;20050;-45
2022/01/01 00:54:25;;;;;;;7.53;6.22;;;11.10;99.90;;;11.20;67.73;98641.88;5008816;28;20067;-45
2022/01/01 00:56:53;;;;;;;12.32;8.40;;;11.10;99.90;;;11.19;68.14;98640.22;5021449;28;20050;-48
2022/01/01 00:59:21;;;;;;;10.37;7.63;;;11.10;99.90;;;11.18;68.47;98642.00;5006737;28;20046;-45
2022/01/01 01:01:49;;;;;;;8.77;6.23;;;11.10;99.90;;;11.20;68.03;98644.53;5006384;28;20045;-46
2022/01/01 01:04:17;;;;;;;13.60;8.57;;;11.10;99.90;;;11.20;68.01;98640.03;5006562;28;20052;-46
2022/01/01 01:06:45;;;;;;;8.83;6.80;;;11.10;99.90;;;11.23;68.25;98639.78;5007812;28;20050;-45
2022/01/01 01:09:13;;;;;;;11.88;7.55;;;11.10;99.90;;;11.24;68.38;98637.94;5007746;28;20060;-45
2022/01/01 01:11:44;;;;;;;11.50;7.47;;;11.20;99.90;;;11.23;68.33;98650.44;5007786;28;20057;-46
2022/01/01 01:14:22;;;;;;;12.70;8.53;;;11.10;99.90;;;11.22;68.32;98642.56;5007123;28;20217;-45
2022/01/01 01:16:52;;;;;;;16.35;9.70;;;11.10;99.90;;;11.23;68.15;98649.59;5038699;28;20057;-45
2022/01/01 01:19:20;;;;;;;11.13;7.50;;;11.10;99.90;;;11.21;67.90;98652.41;5009401;28;20057;-46
2022/01/01 01:21:49;;;;;;;11.93;8.50;;;11.10;99.90;;;11.20;68.27;98653.38;5007868;28;20061;-45
2022/01/01 01:24:18;;;;;;;14.82;9.55;;;11.10;99.90;;;11.21;68.36;98668.41;5007032;28;20076;-46
2022/01/01 01:26:49;;;;;;;14.87;10.07;;;11.10;99.90;;;11.21;68.31;98652.41;5008283;28;20054;-45
2022/01/01 01:29:19;;;;;;;13.55;9.23;;;11.10;99.90;;;11.22;68.56;98662.09;5008282;28;20339;-46
2022/01/01 01:31:47;;;;;;;16.03;11.13;;;11.10;99.90;;;11.19;68.43;98646.38;5006712;28;20048;-44
2022/01/01 01:34:15;;;;;;;16.33;10.60;;;11.10;99.90;;;11.18;68.52;98654.50;5007323;28;20054;-45
2022/01/01 01:36:43;;;;;;;16.13;11.52;;;11.00;99.90;;;11.17;68.91;98655.50;5008265;28;20246;-46
2022/01/01 01:39:11;;;;;;;17.10;12.27;;;11.00;99.90;;;11.17;69.02;98656.34;5008301;28;20068;-52
2022/01/01 01:41:42;;;;;;;21.40;12.27;;;11.10;99.90;;;11.19;68.71;98656.19;5007443;28;20061;-49
2022/01/01 01:44:36;;;;;;;16.90;10.60;;;11.10;99.90;;;11.20;68.70;98649.88;5008270;28;20052;-49
2022/01/01 01:47:13;;;;;;;18.10;11.70;;;11.10;99.90;;;11.20;68.55;98652.53;5037798;28;20068;-49
2022/01/01 01:49:46;;;;;;;17.10;10.87;;;11.10;99.90;;;11.20;69.11;98655.19;5009946;28;20057;-48
2022/01/01 01:52:16;;;;;;;17.23;11.23;;;11.00;99.90;;;11.20;68.93;98650.69;5007226;28;20050;-51
2022/01/01 01:54:44;;;;;;;17.03;11.40;;;11.10;99.90;;;11.20;69.02;98648.03;5006453;28;20251;-49
2022/01/01 01:57:12;;;;;;;15.40;11.50;;;11.10;99.90;;;11.12;69.20;98655.91;5008347;28;20245;-49
2022/01/01 01:59:43;;;;;;;15.27;10.30;;;11.00;99.90;;;11.10;69.06;98665.03;5007740;28;20064;-48
2022/01/01 02:02:11;;;;;;;15.60;10.67;;;11.00;99.90;;;11.07;68.90;98660.84;5005096;28;20076;-50
2022/01/01 02:04:40;;;;;;;15.48;10.13;;;11.00;99.90;;;11.09;69.30;98672.19;5006187;28;20042;-49
2022/01/01 02:07:08;;;;;;;14.67;9.63;;;11.00;99.90;;;11.07;69.03;98655.50;5006851;28;20053;-50
2022/01/01 02:09:38;;;;;;;12.32;8.30;;;11.00;99.90;;;11.09;69.58;98656.19;5006788;28;20459;-51
2022/01/01 02:12:08;;;;;;;10.40;7.65;;;11.00;99.90;;;11.12;69.13;98642.56;5006924;28;20235;-49
2022/01/01 02:17:29;;;;;;;12.27;8.10;;;11.10;99.90;;;11.16;69.19;98651.13;5005958;28;20050;-48
2022/01/01 02:20:05;;;;;;;9.63;7.13;;;11.10;99.90;;;11.17;69.31;98645.69;5007680;28;20061;-50
2022/01/01 02:22:50;;;;;;;8.88;6.65;;;11.10;99.90;;;11.19;69.10;98642.88;5006809;28;20233;-47
2022/01/01 02:25:19;;;;;;;9.00;5.45;;;11.10;99.90;;;11.19;69.41;98638.38;5004700;28;20053;-53
2022/01/01 02:27:47;;;;;;;9.50;6.22;;;11.20;99.90;;;11.19;69.18;98645.53;5006459;28;20072;-51
2022/01/01 02:30:16;;;;;;;10.60;7.83;;;11.20;99.90;;;11.14;68.81;98656.59;5005046;28;20037;-47
2022/01/01 02:32:44;;;;;;;9.47;6.53;;;11.20;99.90;;;11.16;68.72;98645.81;5006397;28;20054;-53
2022/01/01 02:35:16;;;;;;;8.25;5.53;;;11.20;99.90;;;11.16;69.07;98649.31;5007343;28;20049;-47
2022/01/01 02:37:45;;;;;;;9.60;5.67;;;11.20;99.90;;;11.18;68.55;98651.84;5006463;28;20050;-49
2022/01/01 02:40:14;;;;;;;8.40;5.68;;;11.20;99.90;;;11.13;68.72;98646.09;5008374;28;20050;-51
2022/01/01 02:42:43;;;;;;;7.73;4.90;;;11.10;99.90;;;11.17;69.13;98645.69;5005742;28;20057;-49
2022/01/01 02:45:14;;;;;;;8.38;5.63;;;11.20;99.90;;;11.19;68.78;98649.03;5005572;28;20057;-47
2022/01/01 02:47:43;;;;;;;7.70;4.87;;;11.20;99.90;;;11.20;68.97;98655.19;5006664;28;20060;-52
2022/01/01 02:50:12;;;;;;;8.85;5.38;;;11.20;99.90;;;11.20;68.56;98650.69;5007232;28;20054;-50
2022/01/01 02:52:40;;;;;;;9.50;5.03;;;11.20;99.90;;;11.25;68.55;98650.31;5006698;28;20057;-49
2022/01/01 02:55:08;;;;;;;8.23;4.95;;;11.30;99.90;;;11.33;68.93;98644.25;5006201;28;20049;-51
2022/01/01 02:57:36;;;;;;;8.93;5.28;;;11.30;99.90;;;11.37;68.52;98645.66;5005783;28;20056;-47
2022/01/01 03:00:06;;;;;;;10.60;5.47;;;11.30;99.90;;;11.39;68.81;98639.19;5006656;28;20057;-49
2022/01/01 03:02:34;;;;;;;6.30;4.45;;;11.40;99.90;;;11.41;68.58;98639.88;5005609;28;20045;-49
2022/01/01 03:05:02;;;;;;;6.75;5.07;;;11.40;99.90;;;11.45;68.47;98636.97;5005528;28;20421;-49
2022/01/01 03:07:30;;;;;;;11.52;8.05;;;11.40;99.90;;;11.45;68.35;98635.13;5006278;28;20054;-50
2022/01/01 03:10:01;;;;;;;24.48;14.98;;;11.40;99.90;;;11.47;68.38;98645.66;5006648;28;20053;-47
2022/01/01 03:12:29;;;;;;;12.45;8.13;;;11.40;99.90;;;11.47;68.37;98642.97;5006345;28;20046;-49
2022/01/01 03:14:56;;;;;;;9.57;6.18;;;11.40;99.90;;;11.51;68.23;98639.88;5005444;28;20083;-50
2022/01/01 03:17:24;;;;;;;7.38;5.10;;;11.50;99.90;;;11.52;68.62;98638.91;5007230;28;20083;-52
2022/01/01 03:19:52;;;;;;;10.23;5.90;;;11.50;99.90;;;11.53;68.36;98635.25;5007448;28;20053;-47
2022/01/01 03:22:20;;;;;;;7.60;5.25;;;11.50;99.90;;;11.53;68.17;98637.06;5006454;28;20053;-53
2022/01/01 03:24:48;;;;;;;8.20;5.47;;;11.50;99.90;;;11.54;68.49;98636.09;5006654;28;20050;-50
2022/01/01 03:27:15;;;;;;;8.18;5.28;;;11.40;99.90;;;11.51;68.23;98633.72;5006411;28;20348;-50
2022/01/01 03:29:43;;;;;;;7.57;5.10;;;11.50;99.90;;;11.50;68.43;98627.53;5009628;28;20217;-49
2022/01/01 03:32:11;;;;;;;8.35;5.75;;;11.40;99.90;;;11.50;68.04;98637.38;5010549;28;20272;-49
2022/01/01 03:34:39;;;;;;;8.37;5.67;;;11.40;99.90;;;11.49;68.49;98633.84;5010083;28;20050;-51
2022/01/01 03:37:06;;;;;;;7.90;5.45;;;11.40;99.90;;;11.49;68.42;98633.84;5009235;28;20359;-49
2022/01/01 03:39:34;;;;;;;7.07;5.00;;;11.40;99.90;;;11.48;68.36;98636.69;5009833;28;20050;-47
2022/01/01 03:42:02;;;;;;;7.25;5.22;;;11.30;99.90;;;11.47;68.17;98638.47;5008764;28;20084;-49
2022/01/01 03:44:30;;;;;;;7.40;5.10;;;11.40;99.90;;;11.47;68.37;98637.66;5009767;28;20278;-51
2022/01/01 03:47:09;;;;;;;7.57;5.70;;;11.30;99.90;;;11.46;68.29;98626.16;5008109;28;20054;-47
2022/01/01 03:49:39;;;;;;;10.20;5.63;;;11.30;99.90;;;11.47;68.72;98634.97;5008303;28;20048;-47
2022/01/01 03:52:07;;;;;;;8.65;5.57;;;11.30;99.90;;;11.44;68.63;98633.47;5008145;28;20054;-50
2022/01/01 03:54:35;;;;;;;7.70;5.40;;;11.30;99.90;;;11.41;68.15;98642.56;5009234;28;20367;-50
2022/01/01 03:57:03;;;;;;;9.10;5.80;;;11.30;99.90;;;11.43;68.38;98639.75;5009946;28;20045;-48
2022/01/01 03:59:31;;;;;;;9.40;5.97;;;11.30;99.90;;;11.39;67.93;98633.03;5008798;28;20052;-51
2022/01/01 04:01:59;;;;;;;14.23;5.75;;;11.20;99.90;;;11.38;68.17;98629.53;5009615;28;20072;-50
2022/01/01 04:04:27;;;;;;;7.43;5.15;;;11.20;99.90;;;11.40;68.40;98634.72;5010032;28;20050;-49
2022/01/01 04:06:57;;;;;;;8.23;5.38;;;11.30;99.90;;;11.41;68.52;98639.88;5009084;28;20348;-50
2022/01/01 04:09:25;;;;;;;11.07;6.03;;;11.30;99.90;;;11.39;68.35;98633.88;5008887;28;20038;-50
2022/01/01 04:11:53;;;;;;;10.15;7.28;;;11.30;99.90;;;11.35;68.07;98632.47;5009288;28;20046;-48
2022/01/01 04:14:21;;;;;;;9.95;6.70;;;11.30;99.90;;;11.36;68.33;98633.31;5009378;28;20344;-48
2022/01/01 04:16:51;;;;;;;10.40;6.25;;;11.30;99.90;;;11.36;67.91;98627.97;5007538;28;20075;-49
2022/01/01 04:19:24;;;;;;;11.70;7.63;;;11.20;99.90;;;11.31;68.15;98624.91;5010681;28;20057;-48
2022/01/01 04:21:52;;;;;;;11.10;6.95;;;11.20;99.90;;;11.28;67.67;98626.00;5009535;28;20101;-45
2022/01/01 04:24:20;;;;;;;14.37;8.57;;;11.10;99.90;;;11.25;67.89;98630.81;5008718;28;20260;-45
2022/01/01 04:26:48;;;;;;;21.35;12.57;;;11.00;99.90;;;11.19;67.74;98622.38;5008894;28;20052;-46
2022/01/01 04:29:16;;;;;;;19.92;12.55;;;10.90;99.90;;;11.17;67.81;98623.53;5009332;28;20454;-46
2022/01/01 04:31:43;;;;;;;15.23;9.98;;;10.90;99.90;;;11.13;67.67;98620.28;5009139;28;20270;-45
2022/01/01 04:34:11;;;;;;;17.23;10.63;;;10.90;99.90;;;11.09;67.36;98615.38;5008844;28;20060;-46
2022/01/01 04:36:47;;;;;;;10.05;7.03;;;10.80;99.90;;;11.06;67.19;98615.66;5008491;28;20052;-44
2022/01/01 04:39:15;;;;;;;12.45;7.75;;;10.80;99.90;;;10.99;66.75;98620.69;5007766;28;20050;-44
2022/01/01 04:41:43;;;;;;;40.58;26.15;;;10.70;99.90;;;10.93;67.26;98614.09;5008469;28;20050;-44
2022/01/01 04:44:11;;;;;;;24.37;15.20;;;10.70;99.90;;;10.89;67.15;98610.03;5008421;28;20070;-44
2022/01/01 04:46:39;;;;;;;13.47;8.63;;;10.60;99.90;;;10.84;66.90;98602.47;5008273;28;20044;-46
2022/01/01 04:49:07;;;;;;;8.50;6.10;;;10.50;99.90;;;10.79;67.26;98603.88;5007413;28;20048;-48
2022/01/01 04:51:35;;;;;;;8.27;4.50;;;10.50;99.90;;;10.71;67.29;98598.41;5008917;28;20042;-48
2022/01/01 04:54:03;;;;;;;7.33;5.10;;;10.40;99.90;;;10.66;66.92;98604.13;5008945;28;20053;-45
2022/01/01 04:56:33;;;;;;;7.25;4.88;;;10.40;99.90;;;10.63;67.19;98599.09;5008953;28;20046;-44
2022/01/01 04:59:03;;;;;;;8.23;5.27;;;10.30;99.90;;;10.57;67.10;98599.66;5008583;28;20058;-44
2022/01/01 05:01:30;;;;;;;5.90;4.27;;;10.30;99.90;;;10.51;66.95;98594.88;5008657;28;20057;-44
2022/01/01 05:03:59;;;;;;;7.23;4.10;;;10.20;99.90;;;10.47;66.66;98590.78;5008336;28;20062;-45
2022/01/01 05:06:27;;;;;;;6.53;4.40;;;10.20;99.90;;;10.44;67.08;98599.91;5008619;28;20042;-46
2022/01/01 05:08:55;;;;;;;4.97;4.00;;;10.20;99.90;;;10.40;66.81;98596.66;5007918;28;20046;-45
2022/01/01 05:11:23;;;;;;;5.60;3.20;;;10.10;99.90;;;10.38;67.07;98606.59;5008532;28;20046;-48
2022/01/01 05:13:51;;;;;;;5.80;3.50;;;10.10;99.90;;;10.40;66.74;98611.81;5008490;28;20058;-44
2022/01/01 05:16:19;;;;;;;6.50;3.30;;;10.20;99.90;;;10.41;67.04;98613.47;5008441;28;20057;-44
2022/01/01 05:18:47;;;;;;;7.13;3.43;;;10.20;99.90;;;10.38;66.83;98617.25;5008884;28;20348;-45
2022/01/01 05:21:15;;;;;;;4.67;3.23;;;10.30;99.90;;;10.42;66.46;98623.97;5009048;28;20050;-45
2022/01/01 05:23:43;;;;;;;19.73;14.00;;;10.30;99.90;;;10.43;66.31;98619.53;5008661;28;20341;-43
2022/01/01 05:26:12;;;;;;;9.47;7.20;;;10.30;99.90;;;10.40;66.59;98620.63;5008262;28;20042;-46
2022/01/01 05:28:40;;;;;;;7.90;5.40;;;10.30;99.90;;;10.40;66.73;98615.28;5007597;28;20038;-44
2022/01/01 05:31:08;;;;;;;6.33;3.87;;;10.30;99.90;;;10.40;66.45;98623.28;5006655;28;20060;-46
2022/01/01 05:33:35;;;;;;;5.27;3.67;;;10.30;99.90;;;10.38;66.33;98622.56;5008119;28;20052;-44
2022/01/01 05:36:04;;;;;;;5.47;3.60;;;10.30;99.90;;;10.36;66.10;98623.69;5006976;28;20053;-43
2022/01/01 05:38:31;;;;;;;5.93;3.97;;;10.30;99.90;;;10.35;66.36;98622.88;5008442;28;20060;-45
2022/01/01 05:40:59;;;;;;;7.03;3.67;;;10.30;99.90;;;10.31;66.02;98624.09;5005977;28;20342;-43
2022/01/01 05:43:27;;;;;;;5.13;3.87;;;10.20;99.90;;;10.30;66.08;98634.88;5007769;28;20052;-43
2022/01/01 05:45:55;;;;;;;5.63;3.30;;;10.20;99.90;;;10.28;66.08;98626.16;5006673;28;20045;-45
2022/01/01 05:48:23;;;;;;;6.53;3.87;;;10.20;99.90;;;10.27;66.16;98635.13;5006592;28;20042;-46
2022/01/01 05:50:51;;;;;;;5.47;3.30;;;10.20;99.90;;;10.25;65.97;98640.56;5008726;28;20046;-44
2022/01/01 05:53:19;;;;;;;5.57;3.50;;;10.20;99.90;;;10.24;66.29;98630.91;5007414;28;20042;-44
2022/01/01 05:55:48;;;;;;;5.37;2.87;;;10.20;99.90;;;10.26;65.73;98639.59;5008143;28;20060;-45
2022/01/01 05:58:16;;;;;;;6.33;3.77;;;10.20;99.90;;;10.29;65.95;98636.66;5009389;28;20061;-46
2022/01/01 06:00:44;;;;;;;4.80;3.00;;;10.20;99.90;;;10.30;66.06;98643.72;5007402;28;20054;-44
2022/01/01 06:03:13;;;;;;;4.70;3.50;;;10.30;99.90;;;10.32;65.92;98640.91;5007776;28;20344;-45
2022/01/01 06:05:41;;;;;;;6.83;4.00;;;10.30;99.90;;;10.32;65.93;98646.25;5006622;28;20042;-44
2022/01/01 06:08:09;;;;;;;4.67;3.30;;;10.30;99.90;;;10.33;66.16;98648.78;5005545;28;20048;-45
2022/01/01 06:10:38;;;;;;;4.83;3.10;;;10.30;99.90;;;10.32;65.78;98649.75;5007311;28;20360;-47
2022/01/01 06:13:06;;;;;;;4.53;3.27;;;10.30;99.90;;;10.31;65.76;98656.03;5006972;28;20259;-45
2022/01/01 06:15:34;;;;;;;4.13;2.87;;;10.30;99.90;;;10.30;65.72;98662.34;5007558;28;20061;-47
2022/01/01 06:18:03;;;;;;;4.57;3.07;;;10.30;99.00;;;10.28;65.85;98656.28;5006070;28;20060;-45
2022/01/01 06:20:31;;;;;;;6.70;5.10;;;10.30;98.70;;;10.27;65.89;98661.72;5008331;28;20366;-44
2022/01/01 06:23:05;;;;;;;4.37;3.20;;;10.30;99.00;;;10.23;65.61;98663.81;5006845;28;20345;-44
2022/01/01 06:25:36;;;;;;;6.47;3.93;;;10.20;98.50;;;10.23;65.39;98658.50;5007489;28;20060;-44
2022/01/01 06:28:04;;;;;;;6.27;3.43;;;10.30;99.10;;;10.23;65.70;98666.47;5007157;28;20049;-46
2022/01/01 06:30:33;;;;;;;5.00;3.33;;;10.30;98.00;;;10.17;65.29;98659.88;5007126;28;20344;-43
2022/01/01 06:33:16;;;;;;;4.20;2.80;;;10.20;98.40;;;10.17;65.33;98653.72;5006887;28;20062;-44
2022/01/01 06:35:46;;;;;;;4.77;2.83;;;10.20;98.20;;;10.21;65.24;98655.97;5007754;28;20350;-45
2022/01/01 06:38:15;;;;;;;4.73;3.13;;;10.20;98.40;;;10.23;65.27;98667.31;5007661;28;20236;-46
2022/01/01 06:40:44;;;;;;;3.47;2.60;;;10.20;98.90;;;10.25;65.00;98662.72;5007478;28;20062;-44
2022/01/01 06:43:21;;;;;;;4.90;2.50;;;10.30;98.40;;;10.28;65.49;98655.44;5007205;28;20567;-44
2022/01/01 06:45:49;;;;;;;4.47;2.87;;;10.20;98.50;;;10.29;65.35;98673.91;5006633;28;20046;-44
2022/01/01 06:48:17;;;;;;;5.17;2.60;;;10.30;98.90;;;10.32;65.43;98667.53;5007180;28;20345;-44
2022/01/01 06:50:45;;;;;;;6.43;3.30;;;10.30;99.00;;;10.34;65.22;98668.25;5007476;28;20056;-43
2022/01/01 06:53:13;;;;;;;3.63;3.03;;;10.30;98.70;;;10.35;65.63;98667.25;5005934;28;20072;-44
2022/01/01 06:55:41;;;;;;;4.40;2.80;;;10.40;98.50;;;10.37;65.29;98659.97;5005933;28;20223;-44
2022/01/01 06:58:09;;;;;;;4.90;3.17;;;10.30;98.30;;;10.37;65.15;98655.50;5007021;28;20072;-45
2022/01/01 07:00:37;;;;;;;6.00;3.50;;;10.30;98.40;;;10.36;65.60;98651.16;5008226;28;20076;-45
2022/01/01 07:03:06;;;;;;;3.70;2.50;;;10.30;98.60;;;10.37;65.12;98652.84;5009836;28;20080;-44
2022/01/01 07:05:34;;;;;;;4.80;2.63;;;10.20;98.80;;;10.38;65.16;98662.50;5009903;28;20054;-44
2022/01/01 07:08:02;;;;;;;4.90;2.87;;;10.20;99.00;;;10.36;65.18;98664.47;5011107;28;20359;-45
2022/01/01 07:10:30;;;;;;;6.67;3.53;;;10.20;99.00;;;10.34;65.42;98669.06;5010288;28;20045;-44
2022/01/01 07:12:58;;;;;;;4.33;2.90;;;10.20;99.10;;;10.31;65.36;98658.69;5010971;28;20305;-47
2022/01/01 07:15:26;;;;;;;5.80;3.40;;;10.10;99.20;;;10.30;65.43;98669.47;5010375;28;20434;-52
2022/01/01 07:17:54;;;;;;;5.37;3.57;;;10.10;99.50;;;10.29;65.15;98665.94;5009114;28;20053;-48
2022/01/01 07:20:21;;;;;;;4.80;3.70;;;10.10;99.50;;;10.24;65.54;98671.66;5011324;28;20056;-49
2022/01/01 07:22:49;;;;;;;8.43;5.60;;;10.00;99.70;;;10.22;65.32;98673.63;5009420;28;20053;-47
2022/01/01 07:25:18;;;;;;;12.70;5.40;;;10.00;99.90;;;10.22;65.41;98664.81;5009224;28;20260;-48
2022/01/01 07:27:46;;;;;;;8.87;5.63;;;10.00;99.90;;;10.21;65.47;98663.09;5011120;28;20053;-47
2022/01/01 07:30:14;;;;;;;8.43;4.90;;;10.00;99.90;;;10.18;65.63;98664.22;5011382;28;20057;-47
2022/01/01 07:32:48;;;;;;;8.77;4.70;;;9.90;99.90;;;10.16;65.55;98662.69;5007546;28;20054;-46
2022/01/01 07:35:18;;;;;;;7.00;4.23;;;9.90;99.90;;;10.15;65.90;98658.31;5009571;28;20054;-47
2022/01/01 07:37:47;;;;;;;6.30;3.10;;;9.90;99.90;;;10.11;65.50;98663.06;5010662;28;20061;-48
2022/01/01 07:40:16;;;;;;;5.33;3.77;;;9.80;99.90;;;10.09;65.65;98664.19;5009777;28;20045;-47
2022/01/01 07:42:45;;;;;;;7.60;3.97;;;9.80;99.90;;;10.03;65.89;98666.41;5010476;28;20362;-51
2022/01/01 07:45:15;;;;;;;5.57;4.17;;;9.80;99.90;;;10.00;66.01;98652.50;5009866;28;20053;-46
2022/01/01 07:47:43;;;;;;;6.70;3.57;;;9.70;99.90;;;9.99;65.83;98664.16;5010153;28;20062;-51
2022/01/01 07:50:11;;;;;;;6.40;4.40;;;9.70;99.90;;;9.97;66.15;98666.09;5011016;28;20046;-50
2022/01/01 07:52:40;;;;;;;7.10;4.63;;;9.70;99.90;;;9.95;65.78;98666.22;5009209;28;20046;-48
2022/01/01 07:55:09;;;;;;;14.50;7.10;;;9.70;99.90;;;9.95;66.27;98666.22;5010482;28;20349;-48
2022/01/01 07:57:37;;;;;;;11.27;6.63;;;9.70;99.90;;;9.95;66.29;98663.56;5008663;28;20142;-48
2022/01/01 08:00:07;;;;;;;8.77;5.60;;;9.70;99.90;;;9.91;66.15;98664.81;5009385;28;20048;-49
2022/01/01 08:02:42;;;;;;;8.80;4.73;;;9.70;99.90;;;9.93;66.12;98662.03;5010670;28;20054;-48
2022/01/01 08:05:12;;;;;;;4.53;3.67;;;9.70;99.90;;;9.90;66.02;98657.78;5010959;28;20066;-47
2022/01/01 08:07:40;;;;;;;6.33;4.03;;;9.60;99.90;;;9.86;66.27;98654.53;5008816;28;20558;-49
2022/01/01 08:10:28;;;;;;;4.83;3.60;;;9.60;99.90;;;9.88;66.27;98658.91;5010609;28;20437;-52
2022/01/01 08:12:56;;;;;;;5.10;3.53;;;9.60;99.90;;;9.89;66.41;98663.22;5009036;28;20652;-48
2022/01/01 08:15:24;;;;;;;6.73;3.90;;;9.60;99.90;;;9.86;66.16;98661.69;5008675;28;20045;-49
2022/01/01 08:17:52;;;;;;;8.00;3.43;;;9.60;99.90;;;9.84;66.25;98660.97;5007479;28;20064;-47
2022/01/01 08:20:20;;;;;;;4.63;3.00;;;9.60;99.90;;;9.82;66.58;98660.28;5005714;28;20060;-49
2022/01/01 08:22:48;;;;;;;4.70;3.00;;;9.60;99.90;;;9.84;66.73;98669.78;5007928;28;20547;-50
2022/01/01 08:25:16;;;;;;;4.63;3.10;;;9.60;99.90;;;9.89;66.85;98669.41;5007417;28;20046;-47
2022/01/01 08:27:44;;;;;;;3.90;2.60;;;9.70;99.90;;;9.93;66.91;98660.19;5008007;28;20077;-46
2022/01/01 08:30:14;;;;;;;5.27;3.03;;;9.80;99.90;;;9.96;66.84;98662.56;5008665;28;20057;-50
2022/01/01 08:32:42;;;;;;;6.30;3.30;;;9.80;99.90;;;9.96;66.54;98667.06;5005959;28;20064;-47
2022/01/01 08:35:10;;;;;;;5.10;2.90;;;9.80;99.90;;;10.00;66.62;98673.78;5007767;28;20071;-48
2022/01/01 08:37:38;;;;;;;5.00;2.87;;;9.80;99.90;;;10.01;66.73;98679.00;5006561;28;20060;-50
2022/01/01 08:40:07;;;;;;;4.27;2.73;;;9.90;99.90;;;10.05;66.84;98684.88;5008036;28;20370;-50
2022/01/01 08:42:35;;;;;;;4.67;2.50;;;10.00;99.90;;;10.05;66.69;98692.88;5006591;28;20054;-50
2022/01/01 08:45:03;;;;;;;3.70;3.00;;;10.10;99.90;;;10.05;66.64;98684.88;5008015;28;20054;-50
2022/01/01 08:47:31;;;;;;;3.87;2.70;;;10.10;99.90;;;10.05;66.99;98684.88;5008140;28;20243;-48
2022/01/01 08:49:59;;;;;;;4.37;2.90;;;10.10;99.90;;;10.10;66.68;98696.00;5008321;28;20056;-48
2022/01/01 08:52:28;;;;;;;3.80;2.57;;;10.10;99.90;;;10.13;66.99;98689.56;5006806;28;20049;-47
2022/01/01 08:54:56;;;;;;;4.03;2.63;;;10.10;99.90;;;10.12;66.56;98696.69;5007321;28;20240;-49
2022/01/01 08:57:24;;;;;;;4.67;2.70;;;10.10;99.90;;;10.13;66.98;98700.19;5007039;28;20053;-47
2022/01/01 08:59:53;;;;;;;5.37;3.40;;;10.20;99.90;;;10.16;67.20;98692.78;5008721;28;20285;-49
2022/01/01 09:02:21;;;;;;;4.97;3.23;;;10.10;99.90;;;10.20;66.71;98691.53;5015254;28;20243;-48
2022/01/01 09:04:49;;;;;;;3.60;2.33;;;10.20;99.90;;;10.24;66.86;98697.44;5017087;28;20055;-48
2022/01/01 09:07:17;;;;;;;2.80;1.90;;;10.20;99.90;;;10.29;66.88;98705.03;5014612;28;20045;-49
2022/01/01 09:09:45;;;;;;;3.67;2.40;;;10.30;99.90;;;10.35;66.88;98702.72;5018026;28;20057;-52
2022/01/01 09:12:13;;;;;;;3.93;2.97;;;10.40;99.90;;;10.40;67.26;98687.16;5015634;28;20056;-47
2022/01/01 09:14:42;;;;;;;5.33;1.90;;;10.50;99.90;;;10.46;67.10;98691.13;5017578;28;20052;-51
2022/01/01 09:17:14;;;;;;;3.87;2.47;;;10.50;99.90;;;10.52;66.97;98698.56;5010338;28;20340;-50
2022/01/01 09:19:42;;;;;;;5.50;2.70;;;10.60;99.90;;;10.60;66.94;98697.88;5013946;28;20054;-49
2022/01/01 09:22:09;;;;;;;4.20;2.07;;;10.60;99.90;;;10.62;67.12;98702.13;5006601;28;20054;-46
2022/01/01 09:24:37;;;;;;;4.57;3.17;;;10.70;99.90;;;10.64;66.88;98708.16;5006066;28;20060;-49
2022/01/01 09:27:06;;;;;;;4.68;2.33;;;10.70;99.90;;;10.70;67.35;98701.44;5005326;28;20256;-50
2022/01/01 09:29:34;;;;;;;5.53;3.03;;;10.70;99.90;;;10.74;67.04;98708.16;5007340;28;20072;-49
2022/01/01 09:32:03;;;;;;;3.20;2.10;;;10.80;99.90;;;10.81;66.93;98711.94;5005968;28;20062;-50
2022/01/01 09:34:31;;;;;;;3.63;2.13;;;10.90;99.90;;;10.92;67.13;98718.16;5005259;28;20228;-46
2022/01/01 09:37:00;;;;;;;6.23;3.10;;;11.00;99.90;;;11.01;67.11;98719.97;4989477;28;20519;-47
2022/01/01 09:39:27;;;;;;;3.95;2.63;;;11.10;99.90;;;11.03;66.88;98720.69;5007039;28;20058;-50
2022/01/01 09:41:57;;;;;;;6.68;3.53;;;11.10;99.90;;;11.09;67.07;98720.16;5005688;28;20059;-50
2022/01/01 09:44:25;;;;;;;3.83;2.55;;;11.10;99.90;;;11.11;66.68;98717.34;5005513;28;20057;-50
2022/01/01 09:46:54;;;;;;;4.93;2.97;;;11.10;99.90;;;11.13;66.58;98718.91;5004111;28;20454;-48
2022/01/01 09:49:22;;;;;;;4.10;2.30;;;11.10;99.90;;;11.16;66.71;98715.09;5006207;28;20068;-49
2022/01/01 09:51:50;;;;;;;2.90;2.15;;;11.20;99.90;;;11.18;66.37;98711.31;5007333;28;20062;-50
2022/01/01 09:54:18;;;;;;;4.47;2.70;;;11.20;99.90;;;11.22;66.56;98712.75;5007597;28;20060;-48
2022/01/01 09:56:46;;;;;;;2.85;1.73;;;11.20;99.90;;;11.26;66.87;98704.44;5007863;28;20066;-50
2022/01/01 09:59:14;;;;;;;5.22;2.25;;;11.20;99.90;;;11.28;66.49;98713.97;5007976;28;20061;-48
2022/01/01 10:01:43;;;;;;;5.57;2.35;;;11.30;99.90;;;11.31;66.86;98703.06;5006528;28;20056;-50
2022/01/01 10:04:13;;;;;;;5.50;3.50;;;11.30;99.90;;;11.34;66.79;98701.91;5006788;28;20050;-47
2022/01/01 10:06:43;;;;;;;5.70;3.73;;;11.30;99.90;;;11.34;67.05;98701.91;5007255;28;20327;-48
2022/01/01 10:09:16;;;;;;;5.60;3.83;;;11.30;99.90;;;11.35;66.74;98709.78;5007815;28;20058;-48
2022/01/01 10:11:44;;;;;;;6.50;4.23;;;11.30;99.90;;;11.32;67.29;98696.75;5006809;28;20042;-48
2022/01/01 10:14:14;;;;;;;4.38;3.10;;;11.30;99.90;;;11.35;67.20;98695.63;5007139;28;20380;-47
2022/01/01 10:16:44;;;;;;;6.43;4.17;;;11.30;99.90;;;11.34;67.54;98692.13;5007441;28;20244;-47
2022/01/01 10:19:12;;;;;;;5.38;3.35;;;11.30;99.90;;;11.37;67.35;98686.50;5008969;28;20046;-46
2022/01/01 10:21:42;;;;;;;4.38;3.40;;;11.30;99.90;;;11.40;67.15;98688.06;5005497;28;20057;-48
2022/01/01 10:24:14;;;;;;;5.57;3.00;;;11.40;99.90;;;11.45;67.57;98682.28;5007557;28;20769;-49
2022/01/01 10:29:32;;;;;;;5.35;3.67;;;11.50;99.90;;;11.53;67.45;98687.75;5006105;28;20056;-49
2022/01/01 10:32:06;;;;;;;8.32;3.97;;;11.50;99.90;;;11.58;67.83;98689.00;5006113;28;20060;-49